createdAt,value
2023-01-24T06:34:38.185Z,16.48
2023-01-24T06:37:27.184Z,16.13
2023-01-24T06:39:54.741Z,15.10
2023-01-24T06:42:25.742Z,15.88
2023-01-24T06:44:54.127Z,16.70
2023-01-24T06:47:21.388Z,16.08
2023-01-24T06:49:48.680Z,17.30
2023-01-24T06:52:15.835Z,17.38
2023-01-24T06:54:43.051Z,16.33
2023-01-24T06:57:11.259Z,17.02
2023-01-24T06:59:38.564Z,16.52
2023-01-24T07:02:06.343Z,18.13
2023-01-24T07:04:33.700Z,17.08
2023-01-24T07:07:01.074Z,17.17
2023-01-24T07:09:28.500Z,17.33
2023-01-24T07:11:58.732Z,16.58
2023-01-24T07:14:26.874Z,17.45
2023-01-24T07:16:56.842Z,16.33
2023-01-24T07:19:26.721Z,18.05
2023-01-24T07:21:58.105Z,17.15
2023-01-24T07:24:29.252Z,16.65
2023-01-24T07:26:59.504Z,17.38
2023-01-24T07:29:27.660Z,15.52
2023-01-24T07:31:55.765Z,17.65
2023-01-24T07:34:24.983Z,14.98
2023-01-24T07:36:53.570Z,17.00
2023-01-24T07:39:21.297Z,16.02
2023-01-24T07:41:48.862Z,16.85
2023-01-24T07:44:18.068Z,17.55
2023-01-24T07:46:45.491Z,16.05
2023-01-24T07:49:14.443Z,17.80
2023-01-24T07:51:44.367Z,17.67
2023-01-24T07:54:12.100Z,15.38
2023-01-24T07:56:42.071Z,17.17
2023-01-24T07:59:10.048Z,15.95
2023-01-24T08:01:37.253Z,16.92
2023-01-24T08:04:04.684Z,16.55
2023-01-24T08:06:32.040Z,14.90
2023-01-24T08:08:59.623Z,16.05
2023-01-24T08:11:28.037Z,16.45
2023-01-24T08:13:55.893Z,17.33
2023-01-24T08:16:27.062Z,16.15
2023-01-24T08:18:54.574Z,15.57
2023-01-24T08:21:22.298Z,16.33
2023-01-24T08:23:49.768Z,16.20
2023-01-24T08:26:20.540Z,15.20
2023-01-24T08:28:48.950Z,18.08
2023-01-24T08:31:16.689Z,16.75
2023-01-24T08:33:44.324Z,16.23
2023-01-24T08:36:11.630Z,16.05
2023-01-24T08:38:38.861Z,17.13
2023-01-24T08:41:09.163Z,16.45
2023-01-24T08:43:37.149Z,17.30
2023-01-24T08:46:08.205Z,15.45
2023-01-24T08:48:35.522Z,15.00
2023-01-24T08:51:05.654Z,15.70
2023-01-24T08:53:34.595Z,16.15
2023-01-24T08:56:04.349Z,15.52
2023-01-24T08:58:34.358Z,16.67
2023-01-24T09:01:09.342Z,15.70
2023-01-24T09:03:37.854Z,15.30
2023-01-24T09:06:06.103Z,17.05
2023-01-24T09:08:35.215Z,17.25
2023-01-24T09:11:03.503Z,17.15
2023-01-24T09:13:30.872Z,15.13
2023-01-24T09:15:59.558Z,17.58
2023-01-24T09:18:26.959Z,16.52
2023-01-24T09:20:54.546Z,16.02
2023-01-24T09:23:21.960Z,13.35
2023-01-24T09:25:52.557Z,16.45
2023-01-24T09:28:21.373Z,16.10
2023-01-24T09:30:50.446Z,15.60
2023-01-24T09:33:19.415Z,15.18
2023-01-24T09:35:58.303Z,14.82
2023-01-24T09:38:28.598Z,16.70
2023-01-24T09:41:35.745Z,16.55
2023-01-24T09:44:08.720Z,14.65
2023-01-24T09:46:49.844Z,16.63
2023-01-24T09:49:41.152Z,15.98
2023-01-24T09:52:15.378Z,14.82
2023-01-24T09:54:53.354Z,15.43
2023-01-24T09:57:30.916Z,14.43
2023-01-24T10:00:05.240Z,16.45
2023-01-24T10:02:34.313Z,16.63
2023-01-24T10:05:02.164Z,15.95
2023-01-24T10:07:48.674Z,15.65
2023-01-24T10:10:44.172Z,15.27
2023-01-24T10:13:43.355Z,14.77
2023-01-24T10:16:43.631Z,14.63
2023-01-24T10:19:40.878Z,15.77
2023-01-24T10:22:48.052Z,13.95
2023-01-24T10:25:25.963Z,13.82
2023-01-24T10:27:58.774Z,15.43
2023-01-24T10:30:51.710Z,14.75
2023-01-24T10:33:20.490Z,13.60
2023-01-24T10:36:15.009Z,15.60
2023-01-24T10:38:44.142Z,13.05
2023-01-24T10:41:24.653Z,14.00
2023-01-24T10:43:57.046Z,14.00
2023-01-24T10:46:59.070Z,14.30
2023-01-24T10:49:31.868Z,12.82
2023-01-24T10:52:23.331Z,14.27
2023-01-24T10:54:55.180Z,13.65
2023-01-24T10:57:47.011Z,12.03
2023-01-24T11:00:34.504Z,12.38
2023-01-24T11:03:20.331Z,13.27
2023-01-24T11:05:53.202Z,12.13
2023-01-24T11:10:56.577Z,12.05
2023-01-24T11:13:42.654Z,12.10
2023-01-24T11:19:00.081Z,10.55
2023-01-24T11:21:29.762Z,11.80
2023-01-24T11:24:09.347Z,12.48
2023-01-24T11:26:38.587Z,12.02
2023-01-24T11:29:16.676Z,12.18
2023-01-24T11:31:52.234Z,11.98
2023-01-24T11:34:51.533Z,13.30
2023-01-24T11:43:25.247Z,12.40
2023-01-24T11:46:32.699Z,10.55
2023-01-24T11:49:39.828Z,10.95
2023-01-24T11:55:38.040Z,11.80
2023-01-24T11:58:39.012Z,9.60
2023-01-24T12:04:37.208Z,10.27
2023-01-24T12:07:18.026Z,11.10
2023-01-24T12:09:53.430Z,11.07
2023-01-24T12:12:35.346Z,11.23
2023-01-24T12:15:43.805Z,11.40
2023-01-24T12:21:06.906Z,9.73
2023-01-24T12:23:57.282Z,11.20
2023-01-24T12:26:32.278Z,10.60
2023-01-24T12:29:25.437Z,10.60
2023-01-24T12:38:07.590Z,10.45
2023-01-24T12:41:00.276Z,9.88
2023-01-24T12:43:56.765Z,9.45
2023-01-24T12:46:34.659Z,9.10
2023-01-24T12:49:43.920Z,10.45
2023-01-24T12:52:52.323Z,10.93
2023-01-24T12:55:26.262Z,11.52
2023-01-24T12:58:19.894Z,11.05
2023-01-24T13:01:28.328Z,10.68
2023-01-24T13:04:21.319Z,9.80
2023-01-24T13:07:17.843Z,9.38
2023-01-24T13:10:25.241Z,11.15
2023-01-24T13:12:54.981Z,10.50
2023-01-24T13:15:27.756Z,9.90
2023-01-24T13:18:35.328Z,10.70
2023-01-24T13:21:15.551Z,9.63
2023-01-24T13:26:40.753Z,10.07
2023-01-24T13:29:47.905Z,10.02
2023-01-24T13:32:21.874Z,9.52
2023-01-24T13:34:57.088Z,9.20
2023-01-24T13:37:32.388Z,10.05
2023-01-24T13:40:19.253Z,9.15
2023-01-24T13:42:46.716Z,9.48
2023-01-24T13:51:34.567Z,9.45
2023-01-24T13:54:35.732Z,10.52
2023-01-24T13:57:26.042Z,11.40
2023-01-24T14:08:36.390Z,9.90
2023-01-24T14:13:44.861Z,10.38
2023-01-24T14:16:33.125Z,11.25
2023-01-24T14:19:15.000Z,10.27
2023-01-24T14:22:06.062Z,10.77
2023-01-24T14:24:39.309Z,9.45
2023-01-24T14:27:45.804Z,11.40
2023-01-24T14:30:43.679Z,10.20
2023-01-24T14:33:25.602Z,10.18
2023-01-24T14:36:17.171Z,9.85
2023-01-24T14:38:44.530Z,10.57
2023-01-24T14:41:22.193Z,10.77
2023-01-24T14:43:51.306Z,10.73
2023-01-24T14:46:25.154Z,10.65
2023-01-24T14:48:52.615Z,11.80
2023-01-24T14:51:24.102Z,11.32
2023-01-24T14:53:54.477Z,11.90
2023-01-24T14:56:23.306Z,11.30
2023-01-24T14:58:53.737Z,11.85
2023-01-24T15:01:26.911Z,12.50
2023-01-24T15:03:57.640Z,12.13
2023-01-24T15:06:28.180Z,11.80
2023-01-24T15:08:58.269Z,12.55
2023-01-24T15:11:35.872Z,12.30
2023-01-24T15:14:07.216Z,11.85
2023-01-24T15:16:40.455Z,12.90
2023-01-24T15:19:20.702Z,13.48
2023-01-24T15:21:50.812Z,11.68
2023-01-24T15:24:34.242Z,11.65
2023-01-24T15:27:23.689Z,11.13
2023-01-24T15:30:05.362Z,10.98
2023-01-24T15:38:30.118Z,12.05
2023-01-24T15:41:02.839Z,11.93
2023-01-24T15:43:49.149Z,12.75
2023-01-24T15:49:32.043Z,12.73
2023-01-24T15:54:43.568Z,11.93
2023-01-24T15:57:19.678Z,13.88
2023-01-24T15:59:52.480Z,13.18
2023-01-24T16:04:48.857Z,12.68
2023-01-24T16:07:19.626Z,11.77
2023-01-24T16:09:49.450Z,12.77
2023-01-24T16:12:21.263Z,12.90
2023-01-24T16:15:07.170Z,12.98
2023-01-24T16:17:35.559Z,14.35
2023-01-24T16:20:04.754Z,13.40
2023-01-24T16:22:33.928Z,13.32
2023-01-24T16:25:01.149Z,11.95
2023-01-24T16:27:32.510Z,15.18
2023-01-24T16:29:59.998Z,13.07
2023-01-24T16:32:29.502Z,15.05
2023-01-24T16:34:56.796Z,13.07
2023-01-24T16:37:24.144Z,14.07
2023-01-24T16:39:51.596Z,11.45
2023-01-24T16:42:19.888Z,12.80
2023-01-24T16:44:57.002Z,14.10
2023-01-24T16:47:25.840Z,13.30
2023-01-24T16:49:54.574Z,12.55
2023-01-24T16:52:23.949Z,13.65
2023-01-24T16:54:51.869Z,11.70
2023-01-24T16:57:20.021Z,14.63
2023-01-24T16:59:47.623Z,14.05
